sensor_id;sensor_type;location;lat;lon;timestamp;P1;durP1;ratioP1;P2;durP2;ratioP2
49131;SDS011;35149;51.196;6.204;2022-09-21T00:01:23;3.42;;;1.80;;
49131;SDS011;35149;51.196;6.204;2022-09-21T00:03:53;2.92;;;1.50;;
49131;SDS011;35149;51.196;6.204;2022-09-21T00:06:22;4.13;;;1.40;;
49131;SDS011;35149;51.196;6.204;2022-09-21T00:08:51;2.97;;;1.30;;
49131;SDS011;35149;51.196;6.204;2022-09-21T00:11:20;2.00;;;1.40;;
49131;SDS011;35149;51.196;6.204;2022-09-21T00:13:53;1.52;;;1.35;;
49131;SDS011;35149;51.196;6.204;2022-09-21T00:16:22;2.17;;;1.50;;
49131;SDS011;35149;51.196;6.204;2022-09-21T00:18:49;2.45;;;1.70;;
49131;SDS011;35149;51.196;6.204;2022-09-21T00:21:17;1.60;;;1.50;;
49131;SDS011;35149;51.196;6.204;2022-09-21T00:23:46;3.83;;;1.70;;
49131;SDS011;35149;51.196;6.204;2022-09-21T00:26:14;2.10;;;1.77;;
49131;SDS011;35149;51.196;6.204;2022-09-21T00:28:42;2.97;;;1.70;;
49131;SDS011;35149;51.196;6.204;2022-09-21T00:31:11;1.92;;;1.20;;
49131;SDS011;35149;51.196;6.204;2022-09-21T00:33:39;2.05;;;1.20;;
49131;SDS011;35149;51.196;6.204;2022-09-21T00:36:08;3.78;;;1.25;;
49131;SDS011;35149;51.196;6.204;2022-09-21T00:38:40;6.82;;;1.70;;
49131;SDS011;35149;51.196;6.204;2022-09-21T00:41:09;1.83;;;1.73;;
49131;SDS011;35149;51.196;6.204;2022-09-21T00:43:40;2.00;;;1.80;;
49131;SDS011;35149;51.196;6.204;2022-09-21T00:46:14;3.30;;;2.20;;
49131;SDS011;35149;51.196;6.204;2022-09-21T00:51:19;2.70;;;1.20;;
49131;SDS011;35149;51.196;6.204;2022-09-21T00:53:46;5.35;;;1.67;;
49131;SDS011;35149;51.196;6.204;2022-09-21T00:56:16;3.50;;;1.55;;
49131;SDS011;35149;51.196;6.204;2022-09-21T00:58:46;7.18;;;1.90;;
49131;SDS011;35149;51.196;6.204;2022-09-21T01:01:15;3.17;;;1.60;;
49131;SDS011;35149;51.196;6.204;2022-09-21T01:03:44;3.22;;;1.42;;
49131;SDS011;35149;51.196;6.204;2022-09-21T01:06:12;1.90;;;1.70;;
49131;SDS011;35149;51.196;6.204;2022-09-21T01:08:41;2.22;;;1.58;;
49131;SDS011;35149;51.196;6.204;2022-09-21T01:11:30;1.55;;;1.45;;
49131;SDS011;35149;51.196;6.204;2022-09-21T01:14:38;2.88;;;1.90;;
49131;SDS011;35149;51.196;6.204;2022-09-21T01:25:37;3.45;;;2.08;;
49131;SDS011;35149;51.196;6.204;2022-09-21T01:31:09;4.13;;;1.63;;
49131;SDS011;35149;51.196;6.204;2022-09-21T01:33:44;2.08;;;1.88;;
49131;SDS011;35149;51.196;6.204;2022-09-21T01:36:19;3.03;;;1.45;;
49131;SDS011;35149;51.196;6.204;2022-09-21T01:38:51;4.60;;;1.60;;
49131;SDS011;35149;51.196;6.204;2022-09-21T01:41:23;2.35;;;1.98;;
49131;SDS011;35149;51.196;6.204;2022-09-21T01:43:56;2.58;;;1.67;;
49131;SDS011;35149;51.196;6.204;2022-09-21T01:46:33;2.10;;;1.70;;
49131;SDS011;35149;51.196;6.204;2022-09-21T01:49:04;2.60;;;2.05;;
49131;SDS011;35149;51.196;6.204;2022-09-21T01:52:00;3.28;;;1.83;;
49131;SDS011;35149;51.196;6.204;2022-09-21T01:54:38;1.85;;;1.70;;
49131;SDS011;35149;51.196;6.204;2022-09-21T01:57:14;2.70;;;2.10;;
49131;SDS011;35149;51.196;6.204;2022-09-21T01:59:52;2.80;;;1.67;;
49131;SDS011;35149;51.196;6.204;2022-09-21T02:02:45;3.67;;;1.88;;
49131;SDS011;35149;51.196;6.204;2022-09-21T02:05:16;2.90;;;1.60;;
49131;SDS011;35149;51.196;6.204;2022-09-21T02:07:46;2.13;;;2.03;;
49131;SDS011;35149;51.196;6.204;2022-09-21T02:10:16;2.28;;;2.08;;
49131;SDS011;35149;51.196;6.204;2022-09-21T02:13:03;3.88;;;1.80;;
49131;SDS011;35149;51.196;6.204;2022-09-21T02:24:04;3.38;;;1.83;;
49131;SDS011;35149;51.196;6.204;2022-09-21T02:29:30;2.15;;;1.95;;
49131;SDS011;35149;51.196;6.204;2022-09-21T02:32:27;4.05;;;1.80;;
49131;SDS011;35149;51.196;6.204;2022-09-21T02:35:12;1.70;;;1.60;;
49131;SDS011;35149;51.196;6.204;2022-09-21T02:38:06;3.88;;;2.13;;
49131;SDS011;35149;51.196;6.204;2022-09-21T02:40:51;4.30;;;2.33;;
49131;SDS011;35149;51.196;6.204;2022-09-21T02:43:45;4.82;;;2.03;;
49131;SDS011;35149;51.196;6.204;2022-09-21T02:46:23;2.30;;;2.03;;
49131;SDS011;35149;51.196;6.204;2022-09-21T02:48:54;2.10;;;1.90;;
49131;SDS011;35149;51.196;6.204;2022-09-21T02:51:30;3.63;;;2.28;;
49131;SDS011;35149;51.196;6.204;2022-09-21T02:54:03;3.75;;;1.98;;
49131;SDS011;35149;51.196;6.204;2022-09-21T02:56:33;2.63;;;2.03;;
49131;SDS011;35149;51.196;6.204;2022-09-21T02:59:03;2.67;;;2.05;;
49131;SDS011;35149;51.196;6.204;2022-09-21T03:01:32;2.97;;;1.85;;
49131;SDS011;35149;51.196;6.204;2022-09-21T03:04:04;3.88;;;2.58;;
49131;SDS011;35149;51.196;6.204;2022-09-21T03:06:33;2.80;;;2.38;;
49131;SDS011;35149;51.196;6.204;2022-09-21T03:09:01;3.60;;;2.42;;
49131;SDS011;35149;51.196;6.204;2022-09-21T03:11:28;2.58;;;2.38;;
49131;SDS011;35149;51.196;6.204;2022-09-21T03:14:01;5.25;;;2.40;;
49131;SDS011;35149;51.196;6.204;2022-09-21T03:16:32;2.35;;;2.15;;
49131;SDS011;35149;51.196;6.204;2022-09-21T03:18:58;2.60;;;2.10;;
49131;SDS011;35149;51.196;6.204;2022-09-21T03:21:33;2.83;;;2.35;;
49131;SDS011;35149;51.196;6.204;2022-09-21T03:24:00;2.30;;;2.10;;
49131;SDS011;35149;51.196;6.204;2022-09-21T03:26:29;2.83;;;2.30;;
49131;SDS011;35149;51.196;6.204;2022-09-21T03:28:56;3.83;;;2.42;;
49131;SDS011;35149;51.196;6.204;2022-09-21T03:31:22;4.15;;;2.65;;
49131;SDS011;35149;51.196;6.204;2022-09-21T03:33:49;4.10;;;3.03;;
49131;SDS011;35149;51.196;6.204;2022-09-21T03:36:18;4.05;;;2.40;;
49131;SDS011;35149;51.196;6.204;2022-09-21T03:38:48;3.83;;;2.38;;
49131;SDS011;35149;51.196;6.204;2022-09-21T03:41:15;3.10;;;2.25;;
49131;SDS011;35149;51.196;6.204;2022-09-21T03:43:42;4.30;;;2.33;;
49131;SDS011;35149;51.196;6.204;2022-09-21T03:46:13;3.58;;;2.30;;
49131;SDS011;35149;51.196;6.204;2022-09-21T03:48:42;5.55;;;2.63;;
49131;SDS011;35149;51.196;6.204;2022-09-21T03:51:12;5.65;;;2.47;;
49131;SDS011;35149;51.196;6.204;2022-09-21T03:53:42;3.28;;;2.28;;
49131;SDS011;35149;51.196;6.204;2022-09-21T03:56:09;2.13;;;1.75;;
49131;SDS011;35149;51.196;6.204;2022-09-21T03:58:36;3.33;;;2.20;;
49131;SDS011;35149;51.196;6.204;2022-09-21T04:01:02;3.25;;;1.75;;
49131;SDS011;35149;51.196;6.204;2022-09-21T04:03:29;2.38;;;1.83;;
49131;SDS011;35149;51.196;6.204;2022-09-21T04:05:58;2.42;;;1.65;;
49131;SDS011;35149;51.196;6.204;2022-09-21T04:08:25;3.10;;;2.38;;
49131;SDS011;35149;51.196;6.204;2022-09-21T04:10:53;2.30;;;1.90;;
49131;SDS011;35149;51.196;6.204;2022-09-21T04:13:21;5.32;;;2.22;;
49131;SDS011;35149;51.196;6.204;2022-09-21T04:15:56;3.47;;;2.65;;
49131;SDS011;35149;51.196;6.204;2022-09-21T04:18:23;2.78;;;1.88;;
49131;SDS011;35149;51.196;6.204;2022-09-21T04:20:54;1.85;;;1.75;;
49131;SDS011;35149;51.196;6.204;2022-09-21T04:23:24;3.40;;;2.38;;
49131;SDS011;35149;51.196;6.204;2022-09-21T04:25:52;3.63;;;2.25;;
49131;SDS011;35149;51.196;6.204;2022-09-21T04:28:20;2.25;;;2.03;;
49131;SDS011;35149;51.196;6.204;2022-09-21T04:30:51;2.17;;;1.98;;
49131;SDS011;35149;51.196;6.204;2022-09-21T04:33:19;3.77;;;2.03;;
49131;SDS011;35149;51.196;6.204;2022-09-21T04:35:47;3.13;;;2.15;;
49131;SDS011;35149;51.196;6.204;2022-09-21T04:38:16;2.28;;;2.03;;
49131;SDS011;35149;51.196;6.204;2022-09-21T04:40:52;2.13;;;2.00;;
49131;SDS011;35149;51.196;6.204;2022-09-21T04:43:20;2.40;;;2.22;;
49131;SDS011;35149;51.196;6.204;2022-09-21T04:45:50;3.58;;;2.13;;
49131;SDS011;35149;51.196;6.204;2022-09-21T04:48:17;4.07;;;2.15;;
49131;SDS011;35149;51.196;6.204;2022-09-21T04:50:47;2.70;;;2.05;;
49131;SDS011;35149;51.196;6.204;2022-09-21T04:53:17;2.60;;;2.17;;
49131;SDS011;35149;51.196;6.204;2022-09-21T04:55:44;2.22;;;2.03;;
49131;SDS011;35149;51.196;6.204;2022-09-21T04:58:11;4.88;;;2.53;;
49131;SDS011;35149;51.196;6.204;2022-09-21T05:00:38;4.28;;;2.70;;
49131;SDS011;35149;51.196;6.204;2022-09-21T05:03:04;3.92;;;3.15;;
49131;SDS011;35149;51.196;6.204;2022-09-21T05:05:31;5.93;;;3.22;;
49131;SDS011;35149;51.196;6.204;2022-09-21T05:07:58;3.72;;;3.08;;
49131;SDS011;35149;51.196;6.204;2022-09-21T05:10:24;5.88;;;3.63;;
49131;SDS011;35149;51.196;6.204;2022-09-21T05:12:51;5.78;;;3.55;;
49131;SDS011;35149;51.196;6.204;2022-09-21T05:15:18;4.80;;;3.58;;
49131;SDS011;35149;51.196;6.204;2022-09-21T05:17:45;5.80;;;3.50;;
49131;SDS011;35149;51.196;6.204;2022-09-21T05:20:12;5.07;;;3.60;;
49131;SDS011;35149;51.196;6.204;2022-09-21T05:22:38;9.15;;;4.35;;
49131;SDS011;35149;51.196;6.204;2022-09-21T05:25:05;6.50;;;4.30;;
49131;SDS011;35149;51.196;6.204;2022-09-21T05:27:32;7.03;;;3.83;;
49131;SDS011;35149;51.196;6.204;2022-09-21T05:29:59;5.03;;;3.80;;
49131;SDS011;35149;51.196;6.204;2022-09-21T05:37:52;5.38;;;4.28;;
49131;SDS011;35149;51.196;6.204;2022-09-21T05:40:24;4.20;;;3.80;;
49131;SDS011;35149;51.196;6.204;2022-09-21T05:42:53;7.45;;;5.10;;
49131;SDS011;35149;51.196;6.204;2022-09-21T05:45:21;5.25;;;4.75;;
49131;SDS011;35149;51.196;6.204;2022-09-21T05:51:01;7.85;;;4.82;;
49131;SDS011;35149;51.196;6.204;2022-09-21T05:59:06;8.57;;;5.40;;
49131;SDS011;35149;51.196;6.204;2022-09-21T06:01:57;6.90;;;5.40;;
49131;SDS011;35149;51.196;6.204;2022-09-21T06:06:58;4.82;;;4.32;;
49131;SDS011;35149;51.196;6.204;2022-09-21T06:09:25;6.47;;;4.70;;
49131;SDS011;35149;51.196;6.204;2022-09-21T06:11:52;10.25;;;6.55;;
49131;SDS011;35149;51.196;6.204;2022-09-21T06:14:19;7.85;;;5.60;;
49131;SDS011;35149;51.196;6.204;2022-09-21T06:16:50;6.18;;;5.32;;
49131;SDS011;35149;51.196;6.204;2022-09-21T06:19:17;5.60;;;4.95;;
49131;SDS011;35149;51.196;6.204;2022-09-21T06:21:44;7.55;;;5.35;;
49131;SDS011;35149;51.196;6.204;2022-09-21T06:24:13;8.32;;;5.38;;
49131;SDS011;35149;51.196;6.204;2022-09-21T06:26:39;6.57;;;5.22;;
49131;SDS011;35149;51.196;6.204;2022-09-21T06:29:06;6.13;;;4.85;;
49131;SDS011;35149;51.196;6.204;2022-09-21T06:31:33;5.45;;;4.78;;
49131;SDS011;35149;51.196;6.204;2022-09-21T06:34:00;6.93;;;4.82;;
49131;SDS011;35149;51.196;6.204;2022-09-21T06:36:30;7.10;;;5.25;;
49131;SDS011;35149;51.196;6.204;2022-09-21T06:38:57;6.38;;;4.72;;
49131;SDS011;35149;51.196;6.204;2022-09-21T06:41:23;5.88;;;4.75;;
49131;SDS011;35149;51.196;6.204;2022-09-21T06:43:53;5.70;;;5.20;;
49131;SDS011;35149;51.196;6.204;2022-09-21T06:46:21;7.40;;;5.38;;
49131;SDS011;35149;51.196;6.204;2022-09-21T06:48:48;6.13;;;5.45;;
49131;SDS011;35149;51.196;6.204;2022-09-21T06:51:15;6.22;;;5.63;;
49131;SDS011;35149;51.196;6.204;2022-09-21T06:53:42;6.03;;;5.15;;
49131;SDS011;35149;51.196;6.204;2022-09-21T06:56:09;5.60;;;4.95;;
49131;SDS011;35149;51.196;6.204;2022-09-21T06:58:36;8.63;;;5.50;;
49131;SDS011;35149;51.196;6.204;2022-09-21T07:01:07;8.40;;;6.18;;
49131;SDS011;35149;51.196;6.204;2022-09-21T07:03:35;9.60;;;6.03;;
49131;SDS011;35149;51.196;6.204;2022-09-21T07:06:02;7.22;;;5.65;;
49131;SDS011;35149;51.196;6.204;2022-09-21T07:08:29;8.38;;;6.28;;
49131;SDS011;35149;51.196;6.204;2022-09-21T07:11:15;7.03;;;6.10;;
49131;SDS011;35149;51.196;6.204;2022-09-21T07:13:42;7.00;;;5.53;;
49131;SDS011;35149;51.196;6.204;2022-09-21T07:16:10;7.85;;;6.47;;
49131;SDS011;35149;51.196;6.204;2022-09-21T07:18:40;6.93;;;6.22;;
49131;SDS011;35149;51.196;6.204;2022-09-21T07:21:09;6.83;;;6.23;;
49131;SDS011;35149;51.196;6.204;2022-09-21T07:23:36;9.18;;;6.10;;
49131;SDS011;35149;51.196;6.204;2022-09-21T07:26:07;5.97;;;5.38;;
49131;SDS011;35149;51.196;6.204;2022-09-21T07:28:36;7.60;;;5.80;;
49131;SDS011;35149;51.196;6.204;2022-09-21T07:31:13;10.23;;;5.65;;
49131;SDS011;35149;51.196;6.204;2022-09-21T07:33:41;8.35;;;6.35;;
49131;SDS011;35149;51.196;6.204;2022-09-21T07:36:09;8.50;;;6.63;;
49131;SDS011;35149;51.196;6.204;2022-09-21T07:38:41;8.05;;;6.13;;
49131;SDS011;35149;51.196;6.204;2022-09-21T07:41:09;7.95;;;6.82;;
49131;SDS011;35149;51.196;6.204;2022-09-21T07:43:38;6.45;;;5.57;;
49131;SDS011;35149;51.196;6.204;2022-09-21T07:46:09;8.85;;;6.30;;
49131;SDS011;35149;51.196;6.204;2022-09-21T07:48:37;8.25;;;6.57;;
49131;SDS011;35149;51.196;6.204;2022-09-21T07:51:05;7.93;;;6.25;;
49131;SDS011;35149;51.196;6.204;2022-09-21T07:53:37;9.63;;;7.13;;
49131;SDS011;35149;51.196;6.204;2022-09-21T07:56:06;8.73;;;7.65;;
49131;SDS011;35149;51.196;6.204;2022-09-21T07:58:35;11.65;;;8.65;;
49131;SDS011;35149;51.196;6.204;2022-09-21T08:01:21;16.80;;;9.50;;
49131;SDS011;35149;51.196;6.204;2022-09-21T08:03:49;9.60;;;8.52;;
49131;SDS011;35149;51.196;6.204;2022-09-21T08:06:17;11.40;;;8.55;;
49131;SDS011;35149;51.196;6.204;2022-09-21T08:08:44;10.82;;;9.35;;
49131;SDS011;35149;51.196;6.204;2022-09-21T08:11:13;11.00;;;9.25;;
49131;SDS011;35149;51.196;6.204;2022-09-21T08:13:41;10.27;;;9.13;;
49131;SDS011;35149;51.196;6.204;2022-09-21T08:16:08;10.50;;;9.43;;
49131;SDS011;35149;51.196;6.204;2022-09-21T08:18:36;14.05;;;10.02;;
49131;SDS011;35149;51.196;6.204;2022-09-21T08:21:04;11.93;;;9.93;;
49131;SDS011;35149;51.196;6.204;2022-09-21T08:23:32;12.18;;;10.48;;
49131;SDS011;35149;51.196;6.204;2022-09-21T08:26:05;11.38;;;10.18;;
49131;SDS011;35149;51.196;6.204;2022-09-21T08:28:33;12.90;;;10.13;;
49131;SDS011;35149;51.196;6.204;2022-09-21T08:31:02;11.82;;;9.55;;
49131;SDS011;35149;51.196;6.204;2022-09-21T08:33:31;14.15;;;10.13;;
49131;SDS011;35149;51.196;6.204;2022-09-21T08:35:58;12.15;;;9.55;;
49131;SDS011;35149;51.196;6.204;2022-09-21T08:38:26;14.05;;;10.35;;
49131;SDS011;35149;51.196;6.204;2022-09-21T08:40:58;13.90;;;9.65;;
49131;SDS011;35149;51.196;6.204;2022-09-21T08:43:31;11.75;;;9.85;;
49131;SDS011;35149;51.196;6.204;2022-09-21T08:45:59;14.98;;;9.05;;
49131;SDS011;35149;51.196;6.204;2022-09-21T08:48:29;10.57;;;9.30;;
49131;SDS011;35149;51.196;6.204;2022-09-21T08:51:06;11.70;;;8.65;;
49131;SDS011;35149;51.196;6.204;2022-09-21T08:53:37;14.98;;;9.18;;
49131;SDS011;35149;51.196;6.204;2022-09-21T08:56:10;12.68;;;9.65;;
49131;SDS011;35149;51.196;6.204;2022-09-21T08:58:39;13.43;;;9.48;;
49131;SDS011;35149;51.196;6.204;2022-09-21T09:09:06;8.98;;;7.50;;
49131;SDS011;35149;51.196;6.204;2022-09-21T09:11:43;8.75;;;7.25;;
49131;SDS011;35149;51.196;6.204;2022-09-21T09:14:40;8.63;;;6.70;;
49131;SDS011;35149;51.196;6.204;2022-09-21T09:17:30;12.07;;;6.72;;
49131;SDS011;35149;51.196;6.204;2022-09-21T09:20:20;10.82;;;7.15;;
49131;SDS011;35149;51.196;6.204;2022-09-21T09:23:01;11.02;;;7.13;;
49131;SDS011;35149;51.196;6.204;2022-09-21T09:25:35;10.57;;;7.10;;
49131;SDS011;35149;51.196;6.204;2022-09-21T09:28:09;10.68;;;7.22;;
49131;SDS011;35149;51.196;6.204;2022-09-21T09:30:51;9.85;;;6.18;;
49131;SDS011;35149;51.196;6.204;2022-09-21T09:33:26;7.88;;;5.80;;
49131;SDS011;35149;51.196;6.204;2022-09-21T09:36:14;10.85;;;5.40;;
49131;SDS011;35149;51.196;6.204;2022-09-21T09:38:54;8.85;;;6.20;;
49131;SDS011;35149;51.196;6.204;2022-09-21T09:41:28;10.15;;;5.68;;
49131;SDS011;35149;51.196;6.204;2022-09-21T09:49:32;7.13;;;5.55;;
49131;SDS011;35149;51.196;6.204;2022-09-21T09:52:00;11.38;;;6.68;;
49131;SDS011;35149;51.196;6.204;2022-09-21T09:54:27;6.63;;;5.40;;
49131;SDS011;35149;51.196;6.204;2022-09-21T09:56:59;6.97;;;5.35;;
49131;SDS011;35149;51.196;6.204;2022-09-21T09:59:33;7.32;;;4.82;;
49131;SDS011;35149;51.196;6.204;2022-09-21T10:04:58;6.95;;;4.68;;
49131;SDS011;35149;51.196;6.204;2022-09-21T10:07:38;9.02;;;4.47;;
49131;SDS011;35149;51.196;6.204;2022-09-21T10:13:02;7.82;;;4.07;;
49131;SDS011;35149;51.196;6.204;2022-09-21T10:15:42;7.30;;;3.60;;
49131;SDS011;35149;51.196;6.204;2022-09-21T10:20:52;5.25;;;3.10;;
49131;SDS011;35149;51.196;6.204;2022-09-21T10:23:21;3.03;;;2.35;;
49131;SDS011;35149;51.196;6.204;2022-09-21T10:25:55;5.55;;;3.20;;
49131;SDS011;35149;51.196;6.204;2022-09-21T10:28:25;3.60;;;2.28;;
49131;SDS011;35149;51.196;6.204;2022-09-21T10:34:06;4.80;;;3.88;;
49131;SDS011;35149;51.196;6.204;2022-09-21T10:36:39;4.38;;;3.13;;
49131;SDS011;35149;51.196;6.204;2022-09-21T10:39:11;6.63;;;3.00;;
49131;SDS011;35149;51.196;6.204;2022-09-21T10:41:55;3.67;;;2.90;;
49131;SDS011;35149;51.196;6.204;2022-09-21T10:44:26;4.28;;;2.45;;
49131;SDS011;35149;51.196;6.204;2022-09-21T10:47:13;6.18;;;2.35;;
49131;SDS011;35149;51.196;6.204;2022-09-21T10:49:43;3.60;;;2.65;;
49131;SDS011;35149;51.196;6.204;2022-09-21T10:52:13;5.28;;;3.60;;
49131;SDS011;35149;51.196;6.204;2022-09-21T10:54:42;4.65;;;2.40;;
49131;SDS011;35149;51.196;6.204;2022-09-21T10:57:13;5.35;;;2.15;;
49131;SDS011;35149;51.196;6.204;2022-09-21T10:59:42;4.90;;;2.30;;
49131;SDS011;35149;51.196;6.204;2022-09-21T11:02:22;4.10;;;2.47;;
49131;SDS011;35149;51.196;6.204;2022-09-21T11:04:56;6.45;;;2.88;;
49131;SDS011;35149;51.196;6.204;2022-09-21T11:21:03;2.85;;;1.20;;
49131;SDS011;35149;51.196;6.204;2022-09-21T11:23:40;5.38;;;1.40;;
49131;SDS011;35149;51.196;6.204;2022-09-21T11:26:25;5.57;;;2.10;;
49131;SDS011;35149;51.196;6.204;2022-09-21T11:29:02;4.07;;;1.90;;
49131;SDS011;35149;51.196;6.204;2022-09-21T11:34:28;4.35;;;1.30;;
49131;SDS011;35149;51.196;6.204;2022-09-21T11:39:49;3.08;;;1.20;;
49131;SDS011;35149;51.196;6.204;2022-09-21T11:51:26;1.75;;;0.50;;
49131;SDS011;35149;51.196;6.204;2022-09-21T11:57:33;1.75;;;0.82;;
49131;SDS011;35149;51.196;6.204;2022-09-21T12:00:02;1.58;;;0.98;;
49131;SDS011;35149;51.196;6.204;2022-09-21T12:05:14;3.50;;;1.00;;
49131;SDS011;35149;51.196;6.204;2022-09-21T12:13:40;3.65;;;1.10;;
49131;SDS011;35149;51.196;6.204;2022-09-21T12:16:14;5.60;;;1.30;;
49131;SDS011;35149;51.196;6.204;2022-09-21T12:21:39;4.00;;;1.23;;
49131;SDS011;35149;51.196;6.204;2022-09-21T12:27:27;2.90;;;1.10;;
49131;SDS011;35149;51.196;6.204;2022-09-21T12:30:16;2.55;;;1.95;;
49131;SDS011;35149;51.196;6.204;2022-09-21T12:35:36;3.88;;;2.05;;
49131;SDS011;35149;51.196;6.204;2022-09-21T12:38:29;5.20;;;1.63;;
49131;SDS011;35149;51.196;6.204;2022-09-21T12:44:24;3.30;;;1.00;;
49131;SDS011;35149;51.196;6.204;2022-09-21T12:49:43;3.15;;;1.20;;
49131;SDS011;35149;51.196;6.204;2022-09-21T12:52:18;3.20;;;1.20;;
49131;SDS011;35149;51.196;6.204;2022-09-21T13:00:39;4.50;;;1.13;;
49131;SDS011;35149;51.196;6.204;2022-09-21T13:03:15;5.07;;;1.30;;
49131;SDS011;35149;51.196;6.204;2022-09-21T13:08:35;2.75;;;1.20;;
49131;SDS011;35149;51.196;6.204;2022-09-21T13:11:06;1.07;;;0.70;;
49131;SDS011;35149;51.196;6.204;2022-09-21T13:13:38;2.75;;;0.90;;
49131;SDS011;35149;51.196;6.204;2022-09-21T13:16:23;2.28;;;1.00;;
49131;SDS011;35149;51.196;6.204;2022-09-21T13:19:02;1.77;;;0.98;;
49131;SDS011;35149;51.196;6.204;2022-09-21T13:21:38;1.92;;;0.60;;
49131;SDS011;35149;51.196;6.204;2022-09-21T13:24:22;2.35;;;0.90;;
49131;SDS011;35149;51.196;6.204;2022-09-21T13:26:53;4.38;;;1.33;;
49131;SDS011;35149;51.196;6.204;2022-09-21T13:29:27;0.57;;;0.52;;
49131;SDS011;35149;51.196;6.204;2022-09-21T13:32:00;2.10;;;0.80;;
49131;SDS011;35149;51.196;6.204;2022-09-21T13:34:36;3.58;;;1.10;;
49131;SDS011;35149;51.196;6.204;2022-09-21T13:45:05;1.55;;;1.00;;
49131;SDS011;35149;51.196;6.204;2022-09-21T13:47:51;1.52;;;0.80;;
49131;SDS011;35149;51.196;6.204;2022-09-21T13:50:30;1.58;;;0.88;;
49131;SDS011;35149;51.196;6.204;2022-09-21T13:53:07;3.50;;;1.20;;
49131;SDS011;35149;51.196;6.204;2022-09-21T13:55:51;1.27;;;0.80;;
49131;SDS011;35149;51.196;6.204;2022-09-21T13:58:31;2.50;;;0.60;;
49131;SDS011;35149;51.196;6.204;2022-09-21T14:01:05;1.60;;;0.60;;
49131;SDS011;35149;51.196;6.204;2022-09-21T14:03:59;2.17;;;0.82;;
49131;SDS011;35149;51.196;6.204;2022-09-21T14:06:31;2.58;;;1.00;;
49131;SDS011;35149;51.196;6.204;2022-09-21T14:09:01;2.80;;;0.80;;
49131;SDS011;35149;51.196;6.204;2022-09-21T14:11:35;1.70;;;0.90;;
49131;SDS011;35149;51.196;6.204;2022-09-21T14:24:43;1.63;;;0.52;;
49131;SDS011;35149;51.196;6.204;2022-09-21T14:29:49;1.65;;;0.70;;
49131;SDS011;35149;51.196;6.204;2022-09-21T14:32:24;2.20;;;1.20;;
49131;SDS011;35149;51.196;6.204;2022-09-21T14:34:55;1.67;;;0.85;;
49131;SDS011;35149;51.196;6.204;2022-09-21T14:37:30;2.08;;;0.57;;
49131;SDS011;35149;51.196;6.204;2022-09-21T14:40:03;2.28;;;0.80;;
49131;SDS011;35149;51.196;6.204;2022-09-21T14:42:54;0.82;;;0.70;;
49131;SDS011;35149;51.196;6.204;2022-09-21T14:47:59;1.58;;;0.43;;
49131;SDS011;35149;51.196;6.204;2022-09-21T14:51:11;2.33;;;0.63;;
49131;SDS011;35149;51.196;6.204;2022-09-21T15:11:21;1.27;;;0.40;;
49131;SDS011;35149;51.196;6.204;2022-09-21T15:14:06;3.45;;;0.85;;
49131;SDS011;35149;51.196;6.204;2022-09-21T15:16:48;2.15;;;0.90;;
49131;SDS011;35149;51.196;6.204;2022-09-21T15:21:44;3.22;;;0.98;;
49131;SDS011;35149;51.196;6.204;2022-09-21T15:24:16;1.40;;;1.05;;
49131;SDS011;35149;51.196;6.204;2022-09-21T15:29:35;1.63;;;0.60;;
49131;SDS011;35149;51.196;6.204;2022-09-21T15:32:02;1.15;;;0.50;;
49131;SDS011;35149;51.196;6.204;2022-09-21T15:34:31;0.50;;;0.40;;
49131;SDS011;35149;51.196;6.204;2022-09-21T15:37:05;1.33;;;0.57;;
49131;SDS011;35149;51.196;6.204;2022-09-21T15:39:42;1.48;;;0.68;;
49131;SDS011;35149;51.196;6.204;2022-09-21T15:44:43;1.55;;;0.70;;
49131;SDS011;35149;51.196;6.204;2022-09-21T15:47:14;0.43;;;0.43;;
49131;SDS011;35149;51.196;6.204;2022-09-21T15:49:44;1.23;;;0.60;;
49131;SDS011;35149;51.196;6.204;2022-09-21T15:54:58;0.57;;;0.30;;
49131;SDS011;35149;51.196;6.204;2022-09-21T15:57:32;1.27;;;0.60;;
49131;SDS011;35149;51.196;6.204;2022-09-21T16:02:42;1.17;;;0.60;;
49131;SDS011;35149;51.196;6.204;2022-09-21T16:05:18;1.17;;;0.55;;
49131;SDS011;35149;51.196;6.204;2022-09-21T16:07:47;2.00;;;0.70;;
49131;SDS011;35149;51.196;6.204;2022-09-21T16:16:07;1.40;;;1.08;;
49131;SDS011;35149;51.196;6.204;2022-09-21T16:18:40;1.55;;;0.68;;
49131;SDS011;35149;51.196;6.204;2022-09-21T16:24:06;2.90;;;0.68;;
49131;SDS011;35149;51.196;6.204;2022-09-21T16:26:59;0.95;;;0.50;;
49131;SDS011;35149;51.196;6.204;2022-09-21T16:29:39;1.25;;;0.90;;
49131;SDS011;35149;51.196;6.204;2022-09-21T16:34:43;1.85;;;0.70;;
49131;SDS011;35149;51.196;6.204;2022-09-21T16:39:52;1.95;;;0.60;;
49131;SDS011;35149;51.196;6.204;2022-09-21T16:42:26;1.98;;;0.90;;
49131;SDS011;35149;51.196;6.204;2022-09-21T16:45:01;1.75;;;0.65;;
49131;SDS011;35149;51.196;6.204;2022-09-21T16:47:36;1.92;;;0.52;;
49131;SDS011;35149;51.196;6.204;2022-09-21T16:50:05;0.65;;;0.60;;
49131;SDS011;35149;51.196;6.204;2022-09-21T16:55:11;0.95;;;0.63;;
49131;SDS011;35149;51.196;6.204;2022-09-21T17:00:11;0.82;;;0.65;;
49131;SDS011;35149;51.196;6.204;2022-09-21T17:02:45;1.58;;;1.00;;
49131;SDS011;35149;51.196;6.204;2022-09-21T17:05:15;2.45;;;0.57;;
49131;SDS011;35149;51.196;6.204;2022-09-21T17:07:54;1.60;;;1.20;;
49131;SDS011;35149;51.196;6.204;2022-09-21T17:10:29;0.80;;;0.60;;
49131;SDS011;35149;51.196;6.204;2022-09-21T17:15:28;1.35;;;0.60;;
49131;SDS011;35149;51.196;6.204;2022-09-21T17:17:56;4.20;;;0.98;;
49131;SDS011;35149;51.196;6.204;2022-09-21T17:20:30;1.98;;;1.10;;
49131;SDS011;35149;51.196;6.204;2022-09-21T17:23:00;2.40;;;0.98;;
49131;SDS011;35149;51.196;6.204;2022-09-21T17:25:31;1.58;;;0.90;;
49131;SDS011;35149;51.196;6.204;2022-09-21T17:27:58;2.72;;;1.08;;
49131;SDS011;35149;51.196;6.204;2022-09-21T17:30:26;2.00;;;0.70;;
49131;SDS011;35149;51.196;6.204;2022-09-21T17:32:53;1.65;;;1.25;;
49131;SDS011;35149;51.196;6.204;2022-09-21T17:37:56;2.38;;;1.13;;
49131;SDS011;35149;51.196;6.204;2022-09-21T17:40:26;2.63;;;1.30;;
49131;SDS011;35149;51.196;6.204;2022-09-21T17:42:53;1.50;;;1.02;;
49131;SDS011;35149;51.196;6.204;2022-09-21T17:45:49;3.72;;;1.75;;
49131;SDS011;35149;51.196;6.204;2022-09-21T17:48:24;2.53;;;1.23;;
49131;SDS011;35149;51.196;6.204;2022-09-21T17:50:55;1.17;;;0.93;;
49131;SDS011;35149;51.196;6.204;2022-09-21T17:53:22;1.15;;;1.08;;
49131;SDS011;35149;51.196;6.204;2022-09-21T17:58:43;1.83;;;1.10;;
49131;SDS011;35149;51.196;6.204;2022-09-21T18:04:07;1.92;;;1.02;;
49131;SDS011;35149;51.196;6.204;2022-09-21T18:06:38;1.77;;;0.85;;
49131;SDS011;35149;51.196;6.204;2022-09-21T18:09:04;1.20;;;0.93;;
49131;SDS011;35149;51.196;6.204;2022-09-21T18:11:37;1.42;;;0.80;;
49131;SDS011;35149;51.196;6.204;2022-09-21T18:14:36;3.65;;;1.60;;
49131;SDS011;35149;51.196;6.204;2022-09-21T18:25:46;2.40;;;1.30;;
49131;SDS011;35149;51.196;6.204;2022-09-21T18:29:04;2.28;;;1.52;;
49131;SDS011;35149;51.196;6.204;2022-09-21T18:31:43;1.58;;;1.27;;
49131;SDS011;35149;51.196;6.204;2022-09-21T18:40:18;1.33;;;1.17;;
49131;SDS011;35149;51.196;6.204;2022-09-21T18:46:05;2.15;;;1.50;;
49131;SDS011;35149;51.196;6.204;2022-09-21T18:48:58;3.28;;;2.00;;
49131;SDS011;35149;51.196;6.204;2022-09-21T18:51:46;2.28;;;1.83;;
49131;SDS011;35149;51.196;6.204;2022-09-21T18:54:37;6.72;;;2.00;;
49131;SDS011;35149;51.196;6.204;2022-09-21T18:57:08;2.08;;;1.88;;
49131;SDS011;35149;51.196;6.204;2022-09-21T18:59:38;2.90;;;1.63;;
49131;SDS011;35149;51.196;6.204;2022-09-21T19:02:09;1.63;;;1.52;;
49131;SDS011;35149;51.196;6.204;2022-09-21T19:04:41;2.67;;;2.05;;
49131;SDS011;35149;51.196;6.204;2022-09-21T19:09:55;4.57;;;3.55;;
49131;SDS011;35149;51.196;6.204;2022-09-21T19:15:29;3.78;;;2.60;;
49131;SDS011;35149;51.196;6.204;2022-09-21T19:18:44;3.92;;;3.53;;